Time;durP1;ratioP1;P1;durP2;ratioP2;P2;SDS_P1;SDS_P2;PMS_P1;PMS_P2;Temp;Humidity;BMP_temperature;BMP_pressure;BME280_temperature;BME280_humidity;BME280_pressure;Samples;Min_cycle;Max_cycle;Signal;HPM_P1;HPM_P2
2022/09/18 00:04:41;;;;;;;25.52;21.37;;;;;;;7.74;77.83;99186.47;3558915;78;21030;-88
2022/09/18 00:09:32;;;;;;;26.62;21.48;;;;;;;7.70;77.86;99183.45;3540067;79;21557;-88
2022/09/18 00:14:23;;;;;;;25.00;20.12;;;;;;;7.70;78.06;99191.20;3520747;79;20994;-88
2022/09/18 00:19:15;;;;;;;22.90;20.40;;;;;;;7.68;78.13;99192.93;3570341;79;20978;-88
2022/09/18 00:24:07;;;;;;;21.65;19.20;;;;;;;7.71;78.30;99200.67;3521455;79;20955;-88
2022/09/18 00:28:58;;;;;;;24.98;19.00;;;;;;;7.69;78.36;99186.88;3491991;79;21512;-88
2022/09/18 00:33:50;;;;;;;20.72;18.52;;;;;;;7.75;78.46;99189.50;3520659;79;20999;-88
2022/09/18 00:38:41;;;;;;;24.07;17.92;;;;;;;7.79;78.54;99189.95;3539368;79;21959;-88
2022/09/18 00:43:35;;;;;;;21.57;18.20;;;;;;;7.83;78.60;99195.55;3496388;79;20955;-88
2022/09/18 00:48:56;;;;;;;23.02;18.80;;;;;;;7.86;78.73;99187.81;3551168;79;20995;-88
2022/09/18 00:53:56;;;;;;;25.65;18.65;;;;;;;7.95;78.90;99191.72;3545557;78;21016;-88
2022/09/18 00:58:47;;;;;;;21.30;16.75;;;;;;;7.95;78.90;99191.72;3529163;78;20990;-88
2022/09/18 01:03:38;;;;;;;16.73;14.90;;;;;;;7.97;78.96;99187.84;3491108;78;21430;-88
2022/09/18 01:09:10;;;;;;;20.45;16.65;;;;;;;8.01;78.99;99183.98;3564192;78;21537;-88
2022/09/18 01:14:18;;;;;;;24.00;17.23;;;;;;;8.07;79.12;99184.44;3490988;78;20931;-88
2022/09/18 01:19:27;;;;;;;20.12;17.55;;;;;;;8.09;79.03;99170.20;3509963;79;20985;-88
2022/09/18 01:24:40;;;;;;;25.02;17.90;;;;;;;8.02;79.19;99165.44;3556283;79;21408;-88
2022/09/18 01:29:54;;;;;;;24.90;19.42;;;;;;;7.98;79.33;99155.50;3532317;78;21158;-88
2022/09/18 01:35:01;;;;;;;21.30;16.73;;;;;;;8.02;79.53;99161.55;3526647;78;21447;-88
2022/09/18 01:40:04;;;;;;;20.82;17.20;;;;;;;8.02;79.59;99164.99;3506718;78;21518;-88
2022/09/18 01:45:00;;;;;;;20.65;17.17;;;;;;;8.05;79.71;99161.97;3546086;78;21455;-88
2022/09/18 01:49:54;;;;;;;20.07;16.07;;;;;;;8.08;79.84;99156.81;3484336;79;21045;-88
2022/09/18 01:54:49;;;;;;;25.55;15.78;;;;;;;8.13;79.86;99158.55;3557826;77;22505;-88
2022/09/18 02:00:07;;;;;;;20.10;16.07;;;;;;;8.16;80.07;99155.12;3549207;78;21530;-88
2022/09/18 02:05:04;;;;;;;19.40;14.68;;;;;;;8.21;80.20;99151.67;3575882;77;20977;-89
2022/09/18 02:09:57;;;;;;;16.90;14.83;;;;;;;8.29;80.59;99151.67;3583962;78;21540;-89
2022/09/18 02:14:53;;;;;;;18.70;14.68;;;;;;;8.40;80.75;99150.38;3535422;78;20994;-89
2022/09/18 02:20:26;;;;;;;20.30;15.32;;;;;;;8.50;81.05;99151.30;3556162;78;21560;-88
2022/09/18 02:25:41;;;;;;;20.12;15.30;;;;;;;8.60;81.25;99149.13;3579782;77;20943;-88
2022/09/18 02:30:35;;;;;;;19.73;16.00;;;;;;;8.67;81.25;99146.95;3555552;78;21437;-88
2022/09/18 02:35:32;;;;;;;18.52;13.22;;;;;;;8.72;81.28;99140.05;3551000;77;20950;-88
2022/09/18 02:40:43;;;;;;;14.70;12.00;;;;;;;8.78;81.39;99134.88;3569166;77;20959;-89
2022/09/18 02:46:06;;;;;;;13.78;10.75;;;;;;;8.87;81.70;99127.53;3545640;79;21469;-88
2022/09/18 02:51:21;;;;;;;12.28;9.38;;;;;;;8.98;82.40;99130.10;3582194;76;21464;-88
2022/09/18 02:56:44;;;;;;;13.55;11.00;;;;;;;9.13;82.76;99122.27;3418479;81;20984;-88
2022/09/18 03:01:41;;;;;;;13.20;8.78;;;;;;;9.22;82.76;99114.05;3443888;81;21063;-88
2022/09/18 03:06:32;;;;;;;17.07;14.25;;;;;;;9.28;82.60;99116.20;3426952;81;21603;-88
2022/09/18 03:11:23;;;;;;;17.73;14.53;;;;;;;9.34;82.57;99114.00;3383480;81;21569;-88
2022/09/18 03:16:14;;;;;;;13.13;11.75;;;;;;;9.35;82.41;99111.41;3414176;81;21020;-88
2022/09/18 03:21:06;;;;;;;17.02;11.33;;;;;;;9.38;82.36;99115.71;3417100;81;22198;-88
2022/09/18 03:25:58;;;;;;;10.68;9.33;;;;;;;9.43;82.66;99119.16;3427011;81;21437;-88
2022/09/18 03:30:49;;;;;;;9.43;8.33;;;;;;;9.51;82.86;99124.30;3445584;79;20939;-88
2022/09/18 03:35:42;;;;;;;10.48;9.03;;;;;;;9.59;83.29;99128.19;3468256;79;21203;-88
2022/09/18 03:40:34;;;;;;;15.93;13.13;;;;;;;9.65;83.15;99129.44;3485153;79;20986;-88
2022/09/18 03:45:27;;;;;;;14.28;11.33;;;;;;;9.67;82.93;99134.18;3480608;79;21011;-88
2022/09/18 03:50:19;;;;;;;13.35;11.30;;;;;;;9.67;82.89;99137.63;3463811;79;21026;-88
2022/09/18 03:55:11;;;;;;;12.13;10.10;;;;;;;9.70;83.01;99137.63;3410767;79;22256;-88
2022/09/18 04:00:20;;;;;;;13.80;11.25;;;;;;;9.73;83.07;99152.34;3486594;79;20947;-88
2022/09/18 04:05:14;;;;;;;12.78;9.53;;;;;;;9.75;83.16;99145.41;3466817;79;20966;-88
2022/09/18 04:10:10;;;;;;;12.43;8.75;;;;;;;9.78;83.24;99148.41;3436470;79;20986;-87
2022/09/18 04:15:02;;;;;;;12.55;8.75;;;;;;;9.82;83.52;99149.69;3405997;79;20974;-88
2022/09/18 04:19:53;;;;;;;9.75;7.90;;;;;;;9.85;83.64;99135.82;3467218;79;21002;-88
2022/09/18 04:24:45;;;;;;;12.53;9.40;;;;;;;9.92;83.77;99139.66;3465889;79;21153;-88
2022/09/18 04:29:37;;;;;;;16.42;10.50;;;;;;;9.97;83.87;99145.28;3429702;79;20931;-87
2022/09/18 04:34:29;;;;;;;11.30;9.13;;;;;;;10.01;84.01;99141.80;3499324;79;21262;-88
2022/09/18 04:39:21;;;;;;;12.68;8.50;;;;;;;10.01;84.01;99141.80;3457523;79;20990;-88
2022/09/18 04:44:13;;;;;;;12.68;10.45;;;;;;;10.09;84.21;99145.22;3453981;79;21009;-88
2022/09/18 04:49:04;;;;;;;11.33;10.08;;;;;;;10.11;84.23;99146.92;3464874;79;21018;-87
2022/09/18 04:53:55;;;;;;;14.93;9.43;;;;;;;10.19;84.48;99139.07;3464760;78;20951;-88
2022/09/18 04:58:47;;;;;;;13.78;11.28;;;;;;;10.19;84.48;99139.07;3528786;78;20963;-87
2022/09/18 05:03:38;;;;;;;13.98;12.47;;;;;;;10.22;84.29;99140.36;3505216;78;21038;-88
2022/09/18 05:08:33;;;;;;;14.95;11.00;;;;;;;10.26;84.36;99142.05;3522063;78;22227;-88
2022/09/18 05:13:26;;;;;;;14.07;11.50;;;;;;;10.32;84.50;99135.13;3504024;78;21598;-88
2022/09/18 05:18:18;;;;;;;16.85;12.18;;;;;;;10.34;84.31;99135.97;3527200;78;21256;-87
2022/09/18 05:23:10;;;;;;;16.07;12.40;;;;;;;10.34;84.31;99135.97;3476298;79;21385;-88
2022/09/18 05:28:02;;;;;;;17.55;11.53;;;;;;;10.41;84.30;99138.95;3561849;78;20943;-87
2022/09/18 05:32:59;;;;;;;13.28;11.18;;;;;;;10.49;84.45;99134.56;3504844;79;21018;-87
2022/09/18 05:37:51;;;;;;;15.50;11.12;;;;;;;10.49;84.45;99134.56;3559087;78;21163;-87
2022/09/18 05:42:47;;;;;;;13.45;11.18;;;;;;;10.52;84.31;99134.55;3509726;79;21438;-87
2022/09/18 05:47:40;;;;;;;13.05;10.35;;;;;;;10.56;84.31;99133.64;3475388;78;20930;-87
2022/09/18 05:52:32;;;;;;;13.93;10.98;;;;;;;10.62;84.36;99132.72;3451392;80;20887;-88
2022/09/18 05:57:24;;;;;;;12.80;9.63;;;;;;;10.62;84.30;99140.11;3504300;80;21487;-88
2022/09/18 06:02:17;;;;;;;13.08;10.85;;;;;;;10.62;84.42;99145.30;3482033;80;20976;-87
2022/09/18 06:07:25;;;;;;;11.90;10.60;;;;;;;10.59;84.41;99141.42;3446524;80;20947;-87
2022/09/18 06:12:16;;;;;;;16.02;11.33;;;;;;;10.58;84.58;99149.23;3447984;80;20997;-86
2022/09/18 06:17:08;;;;;;;13.75;11.57;;;;;;;10.56;84.73;99154.43;3478184;79;20954;-85
2022/09/18 06:21:59;;;;;;;13.93;12.13;;;;;;;10.55;84.88;99152.73;3515291;80;21001;-86
2022/09/18 06:26:51;;;;;;;16.02;11.53;;;;;;;10.56;84.85;99153.58;3464265;80;21127;-87
2022/09/18 06:31:43;;;;;;;15.03;13.32;;;;;;;10.55;84.93;99159.64;3481590;80;20962;-87
2022/09/18 06:36:36;;;;;;;14.60;12.65;;;;;;;10.55;84.93;99159.64;3465051;80;21559;-87
2022/09/18 06:41:46;;;;;;;13.85;11.40;;;;;;;10.50;85.02;99155.80;3485092;80;21208;-89
2022/09/18 06:46:46;;;;;;;16.12;13.32;;;;;;;10.50;85.02;99155.80;3422756;81;21480;-87
2022/09/18 06:51:40;;;;;;;16.97;13.13;;;;;;;10.49;84.98;99157.95;3456728;78;21107;-90
2022/09/18 06:56:32;;;;;;;16.70;12.23;;;;;;;10.48;84.91;99161.41;3523102;78;21030;-90
2022/09/18 07:01:24;;;;;;;17.80;12.13;;;;;;;10.47;85.00;99171.40;3542970;77;20955;-90
2022/09/18 07:06:17;;;;;;;13.08;11.75;;;;;;;10.45;85.14;99173.15;3513874;78;20955;-87
2022/09/18 07:11:09;;;;;;;12.00;10.55;;;;;;;10.45;85.14;99173.15;3514699;78;20942;-87
2022/09/18 07:16:01;;;;;;;16.07;11.30;;;;;;;10.41;84.94;99172.72;3532451;78;21076;-87
2022/09/18 07:20:52;;;;;;;11.53;10.30;;;;;;;10.39;84.85;99174.48;3519496;78;21485;-87
2022/09/18 07:25:46;;;;;;;15.38;10.72;;;;;;;10.39;84.90;99175.77;3516738;78;20995;-87
2022/09/18 07:30:38;;;;;;;10.58;9.38;;;;;;;10.40;84.87;99178.81;3491430;78;21504;-88
2022/09/18 07:35:31;;;;;;;12.63;8.20;;;;;;;10.37;84.49;99178.82;3459092;78;21187;-86
2022/09/18 07:40:26;;;;;;;10.63;7.67;;;;;;;10.37;84.49;99178.82;3531433;78;21500;-87
2022/09/18 07:45:22;;;;;;;8.60;7.72;;;;;;;10.35;84.36;99177.98;3507351;78;21513;-87
2022/09/18 07:50:14;;;;;;;7.45;6.17;;;;;;;10.43;84.73;99179.66;3528089;77;20986;-87
2022/09/18 07:55:06;;;;;;;11.30;7.78;;;;;;;10.43;84.73;99179.66;3512543;79;20982;-86
2022/09/18 07:59:58;;;;;;;10.00;7.83;;;;;;;10.41;84.14;99180.52;3550129;79;22236;-87
2022/09/18 08:04:50;;;;;;;9.05;8.18;;;;;;;10.44;84.12;99190.90;3491257;80;21492;-86
2022/09/18 08:09:43;;;;;;;8.40;7.55;;;;;;;10.41;84.16;99185.30;3516371;79;20951;-86
2022/09/18 08:14:36;;;;;;;7.05;6.33;;;;;;;10.49;84.17;99191.73;3475345;80;20962;-86
2022/09/18 08:19:37;;;;;;;7.60;5.87;;;;;;;10.44;83.54;99186.55;3558576;79;21531;-85
2022/09/18 08:24:33;;;;;;;6.47;5.87;;;;;;;10.44;83.54;99186.55;3568506;79;20970;-86
2022/09/18 08:29:24;;;;;;;7.25;5.67;;;;;;;10.39;83.98;99197.86;3549261;79;21086;-86
2022/09/18 08:34:17;;;;;;;7.75;6.97;;;;;;;10.39;83.98;99197.86;3516893;79;20959;-86
2022/09/18 08:39:09;;;;;;;7.78;6.33;;;;;;;10.38;83.81;99196.15;3557111;79;21049;-86
2022/09/18 08:44:25;;;;;;;9.48;5.70;;;;;;;10.37;83.71;99198.31;3528516;79;21512;-85
2022/09/18 08:49:32;;;;;;;6.70;6.10;;;;;;;10.36;83.82;99201.80;3514673;79;21010;-85
2022/09/18 08:54:36;;;;;;;6.25;4.40;;;;;;;10.38;83.64;99202.20;3548050;79;20922;-85
2022/09/18 08:59:44;;;;;;;6.22;5.72;;;;;;;10.47;83.42;99201.28;3615581;77;20981;-86
2022/09/18 09:04:36;;;;;;;6.15;5.55;;;;;;;10.99;83.37;99198.26;3618459;77;20985;-86
2022/09/18 09:09:55;;;;;;;7.40;4.87;;;;;;;10.99;83.37;99198.26;3577776;77;20938;-86
2022/09/18 09:15:16;;;;;;;5.55;5.05;;;;;;;11.37;81.99;99199.62;3601341;79;20902;-86
2022/09/18 09:20:33;;;;;;;5.65;3.87;;;;;;;11.54;81.70;99201.20;3553149;79;22286;-85
2022/09/18 09:25:48;;;;;;;4.78;4.10;;;;;;;11.66;81.42;99204.97;3587174;78;20917;-84
2022/09/18 09:30:45;;;;;;;4.60;4.05;;;;;;;11.87;81.03;99204.27;3586074;77;21001;-85
2022/09/18 09:35:41;;;;;;;;;;;;;;;11.92;80.57;99207.72;3604526;79;20955;-84
2022/09/18 09:40:48;;;;;;;5.87;3.77;;;;;;;11.95;80.80;99214.20;3577252;79;21114;-85
2022/09/18 09:45:47;;;;;;;9.80;4.70;;;;;;;11.89;80.80;99215.53;3577539;78;21218;-85
2022/09/18 09:51:05;;;;;;;4.25;3.67;;;;;;;11.99;80.45;99215.87;3584436;77;21989;-86
2022/09/18 09:56:05;;;;;;;5.33;4.20;;;;;;;12.10;80.41;99219.20;3611383;77;20977;-86
2022/09/18 10:01:07;;;;;;;6.05;3.70;;;;;;;12.40;80.53;99218.36;3530628;78;20944;-86
2022/09/18 10:06:26;;;;;;;6.47;4.28;;;;;;;12.75;79.91;99220.86;3586288;77;20935;-87
2022/09/18 10:11:19;;;;;;;8.10;3.40;;;;;;;13.40;78.82;99228.95;3609630;77;21405;-86
2022/09/18 10:16:47;;;;;;;10.13;5.85;;;;;;;14.01;78.12;99229.51;3481916;79;21457;-85
2022/09/18 10:21:41;;;;;;;3.83;3.35;;;;;;;14.28;77.20;99228.05;3585994;78;21021;-85
2022/09/18 10:26:46;;;;;;;5.62;2.80;;;;;;;14.49;77.01;99227.57;3602932;78;21519;-85
2022/09/18 10:31:51;;;;;;;5.58;3.08;;;;;;;15.13;75.39;99230.89;3542939;80;21315;-84
2022/09/18 10:36:45;;;;;;;7.55;4.10;;;;;;;14.85;75.61;99238.09;3553227;77;22061;-86
2022/09/18 10:41:39;;;;;;;3.85;2.85;;;;;;;14.56;75.62;99240.49;3554930;78;20907;-86
2022/09/18 10:46:39;;;;;;;3.87;3.13;;;;;;;14.32;75.95;99240.16;3627840;77;21046;-85
2022/09/18 10:51:30;;;;;;;3.95;2.27;;;;;;;14.18;75.80;99238.28;3561294;77;20987;-85
2022/09/18 10:56:21;;;;;;;4.05;2.75;;;;;;;14.15;75.77;99239.64;3588048;77;20994;-85
2022/09/18 11:01:15;;;;;;;5.30;2.80;;;;;;;14.05;75.50;99242.46;3558063;79;21046;-85
2022/09/18 11:06:22;;;;;;;3.62;2.08;;;;;;;14.13;75.48;99244.05;3527167;78;21406;-86
2022/09/18 11:11:31;;;;;;;3.33;2.12;;;;;;;14.23;74.77;99243.83;3575458;77;20938;-85
2022/09/18 11:16:29;;;;;;;4.67;2.45;;;;;;;14.23;74.45;99241.66;3594614;77;20904;-85
2022/09/18 11:21:27;;;;;;;2.60;2.10;;;;;;;14.05;73.62;99246.84;3524729;77;27587;-85
2022/09/18 11:26:28;;;;;;;3.70;2.17;;;;;;;13.79;74.02;99247.34;3563933;77;21886;-85
2022/09/18 11:31:20;;;;;;;6.70;3.10;;;;;;;13.72;73.77;99248.78;3612958;77;21527;-86
2022/09/18 11:36:18;;;;;;;3.33;2.62;;;;;;;13.73;73.20;99246.61;3571088;77;21085;-86
2022/09/18 11:41:12;;;;;;;5.47;3.47;;;;;;;13.92;73.35;99246.23;3514352;79;22287;-85
2022/09/18 11:46:22;;;;;;;4.37;2.55;;;;;;;14.50;73.25;99241.50;3561361;77;21517;-86
2022/09/18 11:51:25;;;;;;;4.00;2.83;;;;;;;14.82;72.33;99249.94;3596683;77;21304;-86
2022/09/18 11:56:50;;;;;;;5.17;2.65;;;;;;;14.94;71.11;99241.40;3627512;77;20923;-85
2022/09/18 12:01:48;;;;;;;4.05;2.50;;;;;;;15.03;70.60;99241.17;3615983;77;20912;-85
2022/09/18 12:07:06;;;;;;;5.03;2.37;;;;;;;14.87;70.79;99244.15;3599803;77;21239;-86
2022/09/18 12:12:22;;;;;;;5.10;2.20;;;;;;;14.56;70.07;99241.80;3639618;77;20923;-86
2022/09/18 12:18:00;;;;;;;3.62;2.30;;;;;;;14.33;70.83;99241.89;3569817;77;21485;-86
2022/09/18 12:22:58;;;;;;;2.40;2.17;;;;;;;14.31;70.96;99242.38;3615304;77;20924;-86
2022/09/18 12:28:07;;;;;;;4.08;2.30;;;;;;;14.50;69.75;99238.87;3574682;77;21009;-86
2022/09/18 12:33:20;;;;;;;3.35;1.87;;;;;;;14.61;69.68;99236.05;3604632;77;20998;-86
2022/09/18 12:38:26;;;;;;;3.37;2.52;;;;;;;15.11;68.94;99233.97;3597381;77;20958;-87
2022/09/18 12:43:46;;;;;;;3.30;2.22;;;;;;;15.53;68.07;99228.52;3580292;77;21205;-86
2022/09/18 12:48:58;;;;;;;3.42;1.67;;;;;;;15.87;67.98;99235.48;3513134;80;20998;-87
2022/09/18 12:54:03;;;;;;;3.80;2.42;;;;;;;15.90;67.03;99231.47;3462058;80;21079;-86
2022/09/18 12:59:11;;;;;;;3.05;1.82;;;;;;;15.64;66.92;99234.31;3498073;80;21459;-86
2022/09/18 13:04:11;;;;;;;5.10;3.20;;;;;;;15.32;66.90;99240.42;3444971;79;21003;-86
2022/09/18 13:09:10;;;;;;;3.00;2.00;;;;;;;14.99;67.20;99236.92;3493252;79;20902;-87
2022/09/18 13:14:28;;;;;;;4.05;2.25;;;;;;;14.71;66.99;99237.56;3366571;83;20919;-87
2022/09/18 13:19:35;;;;;;;6.12;4.00;;;;;;;14.69;66.96;99236.75;3337907;83;20991;-87
2022/09/18 13:24:34;;;;;;;4.40;3.30;;;;;;;14.67;66.70;99240.70;3365933;80;21598;-86
2022/09/18 13:29:49;;;;;;;4.78;2.83;;;;;;;14.79;67.18;99244.80;3479499;78;20944;-86
2022/09/18 13:34:48;;;;;;;3.25;2.83;;;;;;;14.83;67.39;99249.52;3468501;80;21210;-86
2022/09/18 13:39:39;;;;;;;4.87;2.45;;;;;;;14.81;66.96;99248.69;3488989;80;21059;-86
2022/09/18 13:44:35;;;;;;;4.03;2.45;;;;;;;14.71;66.84;99258.49;3494480;80;20977;-86
2022/09/18 13:49:50;;;;;;;2.90;1.80;;;;;;;14.43;66.56;99255.60;3507603;77;21515;-86
2022/09/18 13:55:03;;;;;;;2.60;2.15;;;;;;;14.18;66.63;99264.42;3584886;76;20965;-86
2022/09/18 14:00:05;;;;;;;3.62;2.27;;;;;;;13.89;66.61;99269.34;3537980;79;22020;-88
2022/09/18 14:05:22;;;;;;;4.45;2.75;;;;;;;13.67;66.96;99275.44;3607372;77;20970;-86
2022/09/18 14:10:25;;;;;;;4.03;2.22;;;;;;;13.50;67.41;99277.48;3601201;77;21418;-86
2022/09/18 14:15:24;;;;;;;7.00;3.67;;;;;;;13.25;67.83;99275.30;3546131;79;20999;-86
2022/09/18 14:20:21;;;;;;;3.70;2.95;;;;;;;13.12;68.13;99282.89;3510609;79;21508;-86
2022/09/18 14:25:14;;;;;;;4.35;2.83;;;;;;;13.11;68.74;99279.84;3530598;79;22014;-87
2022/09/18 14:30:19;;;;;;;2.60;2.40;;;;;;;13.17;68.81;99275.86;3513929;78;21446;-86
2022/09/18 14:35:19;;;;;;;5.12;3.00;;;;;;;13.34;68.47;99283.00;3540634;78;21017;-86
2022/09/18 14:40:21;;;;;;;4.40;3.27;;;;;;;13.22;68.14;99283.17;3552788;78;21000;-86
2022/09/18 14:45:23;;;;;;;3.42;3.12;;;;;;;13.10;68.09;99287.28;3532390;78;21006;-86
2022/09/18 14:50:32;;;;;;;4.28;3.55;;;;;;;13.08;68.45;99282.53;3551551;77;22117;-86
2022/09/18 14:55:39;;;;;;;3.65;3.08;;;;;;;13.07;68.08;99283.41;3615177;77;21165;-87
2022/09/18 15:00:34;;;;;;;3.98;3.45;;;;;;;12.94;68.31;99292.73;3591699;77;21599;-85
2022/09/18 15:05:27;;;;;;;4.50;3.15;;;;;;;12.81;68.54;99291.20;3581334;77;21405;-87
2022/09/18 15:10:18;;;;;;;4.45;4.05;;;;;;;12.72;68.62;99293.50;3517028;77;20932;-86
2022/09/18 15:15:32;;;;;;;4.00;3.52;;;;;;;12.66;69.12;99288.39;3446900;79;21019;-87
2022/09/18 15:20:27;;;;;;;4.47;4.08;;;;;;;12.62;69.20;99285.83;3555595;77;20982;-87
2022/09/18 15:25:26;;;;;;;4.08;3.58;;;;;;;12.58;69.49;99280.66;3604653;77;20969;-86
2022/09/18 15:30:22;;;;;;;6.45;3.65;;;;;;;12.56;69.60;99279.81;3613446;77;20966;-86
2022/09/18 15:35:24;;;;;;;8.35;5.80;;;;;;;12.47;69.81;99276.04;3582786;77;20975;-87
2022/09/18 15:40:20;;;;;;;8.48;5.05;;;;;;;12.39;70.36;99271.36;3576730;77;21436;-86
2022/09/18 15:45:20;;;;;;;5.42;4.60;;;;;;;12.37;70.59;99280.95;3606250;77;20994;-86
2022/09/18 15:50:17;;;;;;;5.28;4.33;;;;;;;12.39;70.76;99283.09;3593606;78;20930;-87
2022/09/18 15:55:22;;;;;;;5.90;5.40;;;;;;;12.37;70.87;99277.04;3617643;77;28180;-86
2022/09/18 16:00:28;;;;;;;6.42;5.45;;;;;;;12.38;70.95;99277.47;3633785;77;20930;-87
2022/09/18 16:05:21;;;;;;;6.08;5.47;;;;;;;12.39;70.99;99280.06;3520649;79;22259;-87
2022/09/18 16:10:38;;;;;;;5.87;5.28;;;;;;;12.42;71.32;99275.69;3609787;77;21005;-86
2022/09/18 16:15:30;;;;;;;6.00;5.17;;;;;;;12.35;71.43;99277.51;3615789;77;20987;-86
2022/09/18 16:20:40;;;;;;;5.95;4.92;;;;;;;12.30;71.59;99284.52;3537761;77;20947;-86
2022/09/18 16:25:36;;;;;;;6.62;5.85;;;;;;;12.27;71.76;99283.25;3611712;77;38765;-86
2022/09/18 16:30:29;;;;;;;6.30;5.58;;;;;;;12.22;72.03;99282.47;3618493;77;21535;-91
2022/09/18 16:35:20;;;;;;;6.20;5.05;;;;;;;12.17;71.96;99282.06;3614334;77;20950;-86
2022/09/18 16:40:16;;;;;;;6.20;5.60;;;;;;;12.15;72.35;99282.53;3524641;78;21005;-87
2022/09/18 16:45:08;;;;;;;7.05;5.65;;;;;;;12.12;72.47;99289.52;3536301;78;20990;-88
2022/09/18 16:50:00;;;;;;;7.65;5.97;;;;;;;12.09;72.49;99288.25;3541733;78;21469;-87
2022/09/18 16:54:51;;;;;;;6.17;5.58;;;;;;;12.08;72.80;99287.39;3629119;77;21151;-87
2022/09/18 16:59:47;;;;;;;8.13;5.67;;;;;;;12.06;72.79;99289.16;3607794;77;21573;-86
2022/09/18 17:04:35;;;;;;;5.62;5.05;;;;;;;12.04;73.13;99294.83;3561261;78;20974;-87
2022/09/18 17:09:27;;;;;;;7.15;6.10;;;;;;;12.04;73.16;99297.86;3617676;77;21219;-87
2022/09/18 17:14:18;;;;;;;6.90;5.65;;;;;;;12.00;73.19;99289.22;3508816;78;21017;-87
2022/09/18 17:19:12;;;;;;;7.58;6.37;;;;;;;12.00;73.41;99291.82;3573212;78;21909;-88
2022/09/18 17:24:04;;;;;;;10.08;6.65;;;;;;;11.98;73.66;99293.59;3501215;78;20963;-87
2022/09/18 17:28:57;;;;;;;8.13;6.28;;;;;;;11.97;73.75;99287.97;3521528;78;20966;-88
2022/09/18 17:33:50;;;;;;;13.55;8.25;;;;;;;11.95;74.14;99291.89;3564729;77;20986;-90
2022/09/18 17:38:42;;;;;;;8.35;6.72;;;;;;;11.93;74.33;99292.77;3596975;78;20934;-89
2022/09/18 17:43:34;;;;;;;9.98;6.87;;;;;;;11.90;74.62;99299.30;3501137;79;21068;-89
2022/09/18 17:48:26;;;;;;;8.30;7.30;;;;;;;11.89;74.76;99302.33;3584271;77;20953;-89
2022/09/18 17:53:18;;;;;;;8.90;7.58;;;;;;;11.88;74.82;99304.53;3570371;77;20967;-88
2022/09/18 17:58:10;;;;;;;10.23;8.58;;;;;;;11.86;74.98;99300.20;3630735;77;20966;-88
2022/09/18 18:03:01;;;;;;;8.43;7.47;;;;;;;11.86;75.04;99299.78;3492603;78;20971;-87
2022/09/18 18:07:52;;;;;;;8.73;7.83;;;;;;;11.85;75.14;99310.20;3543865;78;20998;-90
2022/09/18 18:12:43;;;;;;;7.37;6.67;;;;;;;11.85;75.14;99310.20;3493765;78;21428;-88
2022/09/18 18:17:34;;;;;;;6.03;5.42;;;;;;;11.82;75.11;99315.87;3510711;78;21071;-89
2022/09/18 18:22:25;;;;;;;7.08;5.53;;;;;;;11.83;75.17;99316.28;3519493;78;21485;-89
2022/09/18 18:27:20;;;;;;;7.87;4.83;;;;;;;11.82;75.17;99324.99;3521169;78;21026;-88
2022/09/18 18:32:09;;;;;;;5.42;4.17;;;;;;;11.81;75.25;99322.40;3560586;78;21078;-87
2022/09/18 18:37:01;;;;;;;3.98;3.58;;;;;;;11.82;75.31;99329.31;3535805;77;21555;-87
2022/09/18 18:41:52;;;;;;;5.55;3.52;;;;;;;11.80;75.26;99336.28;3570549;77;20970;-88
2022/09/18 18:46:43;;;;;;;5.97;3.50;;;;;;;11.76;75.21;99334.59;3500003;77;21669;-87
2022/09/18 18:51:41;;;;;;;4.22;3.42;;;;;;;11.71;75.26;99338.53;3505084;79;20973;-88
2022/09/18 18:56:36;;;;;;;5.17;3.10;;;;;;;11.69;75.26;99341.59;3544890;77;21237;-88
2022/09/18 19:01:30;;;;;;;3.02;2.62;;;;;;;11.64;75.16;99335.56;3544219;77;20981;-88
2022/09/18 19:06:25;;;;;;;3.12;2.27;;;;;;;11.60;75.26;99339.09;3557118;77;20969;-89
2022/09/18 19:11:20;;;;;;;3.15;2.52;;;;;;;11.59;74.78;99350.39;3532834;77;21472;-88
2022/09/18 19:16:12;;;;;;;2.75;2.42;;;;;;;11.56;74.83;99349.11;3570647;78;21259;-87
2022/09/18 19:21:03;;;;;;;4.67;2.50;;;;;;;11.53;75.04;99346.52;3559758;77;21035;-87
2022/09/18 19:25:59;;;;;;;3.12;2.45;;;;;;;11.48;75.20;99352.20;3551320;77;20931;-87
2022/09/18 19:30:52;;;;;;;4.08;2.62;;;;;;;11.44;75.13;99349.62;3514389;78;20962;-88
2022/09/18 19:35:43;;;;;;;3.15;2.85;;;;;;;11.42;75.15;99342.27;3588485;77;20986;-87
2022/09/18 19:40:37;;;;;;;3.92;3.20;;;;;;;11.43;75.43;99351.81;3582778;78;20982;-87
2022/09/18 19:45:31;;;;;;;5.58;3.72;;;;;;;11.45;75.55;99350.06;3542392;78;21736;-88
2022/09/18 19:50:31;;;;;;;4.60;3.50;;;;;;;11.47;75.63;99351.80;3564605;78;21539;-88
2022/09/18 19:55:23;;;;;;;4.25;2.62;;;;;;;11.47;75.72;99347.89;3544275;78;21005;-88
2022/09/18 20:00:14;;;;;;;5.15;3.70;;;;;;;11.46;75.88;99349.61;3536662;78;20915;-87
2022/09/18 20:05:08;;;;;;;5.75;3.55;;;;;;;11.45;75.93;99355.27;3491321;78;21037;-88
2022/09/18 20:09:59;;;;;;;6.17;3.15;;;;;;;11.44;76.17;99356.13;3519985;78;21437;-91
2022/09/18 20:14:50;;;;;;;3.75;3.20;;;;;;;11.38;76.74;99358.80;3532322;78;20939;-86
2022/09/18 20:19:41;;;;;;;4.47;2.98;;;;;;;11.31;77.03;99360.16;3522232;78;21474;-86
2022/09/18 20:24:33;;;;;;;5.80;3.50;;;;;;;11.23;77.57;99356.30;3515135;78;21089;-87
2022/09/18 20:29:26;;;;;;;5.70;3.62;;;;;;;11.18;77.91;99356.80;3532513;78;21465;-86
2022/09/18 20:34:21;;;;;;;10.53;3.92;;;;;;;11.05;78.28;99346.89;3559577;77;22231;-87
2022/09/18 20:39:10;;;;;;;4.28;3.10;;;;;;;11.05;78.28;99346.89;3591895;77;21008;-86
2022/09/18 20:44:03;;;;;;;3.77;3.05;;;;;;;11.08;78.34;99356.42;3523552;77;20958;-86
2022/09/18 20:48:54;;;;;;;3.45;2.80;;;;;;;11.02;78.33;99345.63;3626751;77;20950;-86
2022/09/18 20:53:45;;;;;;;4.37;2.95;;;;;;;10.96;78.74;99337.85;3478997;78;20946;-86
2022/09/18 20:58:40;;;;;;;3.27;2.98;;;;;;;10.93;78.61;99337.86;3457973;79;21199;-86
2022/09/18 21:03:37;;;;;;;6.17;2.70;;;;;;;10.90;78.84;99341.36;3464742;80;20982;-86
2022/09/18 21:08:28;;;;;;;4.97;3.15;;;;;;;10.86;78.79;99337.91;3491861;80;20983;-86
2022/09/18 21:13:19;;;;;;;7.12;3.20;;;;;;;10.79;78.53;99333.62;3509741;79;20938;-86
2022/09/18 21:18:13;;;;;;;3.92;3.40;;;;;;;10.72;78.68;99336.28;3490471;80;20954;-86
2022/09/18 21:28:13;;;;;;;4.78;2.72;;;;;;;10.71;78.91;99334.55;3497499;78;21014;-87
2022/09/18 21:33:07;;;;;;;6.20;3.70;;;;;;;10.71;79.05;99331.94;3489870;80;21267;-86
2022/09/18 21:37:57;;;;;;;3.60;3.30;;;;;;;10.71;79.17;99332.80;3496348;79;21558;-86
2022/09/18 21:42:49;;;;;;;3.83;3.42;;;;;;;10.68;79.20;99324.59;3460873;79;21526;-86
2022/09/18 21:47:40;;;;;;;7.75;4.92;;;;;;;10.67;79.36;99324.16;3472523;78;21535;-86
2022/09/18 21:52:31;;;;;;;7.92;5.40;;;;;;;10.70;79.48;99313.34;3517792;78;21046;-86
2022/09/18 21:57:24;;;;;;;7.05;5.80;;;;;;;10.72;79.73;99328.04;3523649;78;21041;-86
2022/09/18 22:02:20;;;;;;;8.43;5.30;;;;;;;10.75;79.85;99324.55;3563676;78;21016;-86
2022/09/18 22:07:09;;;;;;;7.20;5.40;;;;;;;10.75;79.87;99332.34;3623368;77;21006;-86
2022/09/18 22:12:01;;;;;;;6.72;5.58;;;;;;;10.66;80.07;99317.69;3575847;77;21229;-86
2022/09/18 22:16:52;;;;;;;7.17;4.67;;;;;;;10.72;80.12;99325.44;3514005;77;21037;-86
2022/09/18 22:21:47;;;;;;;8.03;5.20;;;;;;;10.72;80.27;99318.09;3508430;79;21038;-86
2022/09/18 22:26:43;;;;;;;8.48;5.50;;;;;;;10.75;80.44;99324.55;3560396;78;20951;-86
2022/09/18 22:31:35;;;;;;;10.98;6.25;;;;;;;10.73;80.32;99322.39;3578071;77;20938;-86
2022/09/18 22:36:26;;;;;;;7.05;5.53;;;;;;;10.74;80.44;99322.83;3587624;77;21282;-85
2022/09/18 22:41:18;;;;;;;8.88;5.03;;;;;;;10.70;80.35;99331.09;3582520;78;20975;-85
2022/09/18 22:46:15;;;;;;;8.33;5.10;;;;;;;10.70;80.35;99331.09;3524067;79;20934;-85
2022/09/18 22:51:13;;;;;;;6.53;4.10;;;;;;;10.69;80.45;99328.05;3520763;79;20986;-84
2022/09/18 22:56:08;;;;;;;10.38;4.90;;;;;;;10.65;80.58;99336.30;3533614;77;21403;-85
2022/09/18 23:01:09;;;;;;;7.33;5.05;;;;;;;10.63;80.62;99332.84;3588854;77;22007;-84
2022/09/18 23:06:01;;;;;;;9.60;4.30;;;;;;;10.60;80.40;99329.41;3598905;77;20941;-85
2022/09/18 23:10:53;;;;;;;10.72;4.33;;;;;;;10.59;80.26;99332.45;3547383;77;20914;-85
2022/09/18 23:15:44;;;;;;;10.05;4.35;;;;;;;10.61;80.24;99339.80;3601612;77;21458;-85
2022/09/18 23:20:35;;;;;;;9.60;5.00;;;;;;;10.59;80.18;99330.30;3582327;77;20988;-85